sensor_id;sensor_type;location;lat;lon;timestamp;pressure;altitude;pressure_sealevel;temperature;humidity
5703;BME280;2876;51.738;10.050;2022-09-09T00:25:13;98692.88;;;14.31;100.00
5703;BME280;2876;51.738;10.050;2022-09-09T00:31:25;98683.56;;;14.51;100.00
5703;BME280;2876;51.738;10.050;2022-09-09T00:37:29;98693.38;;;14.57;100.00
5703;BME280;2876;51.738;10.050;2022-09-09T00:43:40;98685.53;;;14.55;100.00
5703;BME280;2876;51.738;10.050;2022-09-09T00:50:01;98691.28;;;14.59;100.00
5703;BME280;2876;51.738;10.050;2022-09-09T00:56:14;98689.06;;;14.44;100.00
5703;BME280;2876;51.738;10.050;2022-09-09T01:02:31;98689.47;;;14.36;100.00
5703;BME280;2876;51.738;10.050;2022-09-09T01:14:49;98684.91;;;14.25;100.00
5703;BME280;2876;51.738;10.050;2022-09-09T01:21:15;98694.41;;;14.27;100.00
5703;BME280;2876;51.738;10.050;2022-09-09T01:27:21;98694.22;;;14.45;100.00
5703;BME280;2876;51.738;10.050;2022-09-09T01:33:25;98692.63;;;14.33;100.00
5703;BME280;2876;51.738;10.050;2022-09-09T01:39:27;98685.88;;;14.59;100.00
5703;BME280;2876;51.738;10.050;2022-09-09T01:45:30;98689.69;;;14.34;100.00
5703;BME280;2876;51.738;10.050;2022-09-09T01:51:34;98678.66;;;14.36;100.00
5703;BME280;2876;51.738;10.050;2022-09-09T02:04:50;98691.97;;;14.14;100.00
5703;BME280;2876;51.738;10.050;2022-09-09T02:11:06;98689.03;;;14.27;100.00
5703;BME280;2876;51.738;10.050;2022-09-09T02:17:16;98691.72;;;14.27;100.00
5703;BME280;2876;51.738;10.050;2022-09-09T02:23:21;98684.38;;;14.39;100.00
5703;BME280;2876;51.738;10.050;2022-09-09T02:29:28;98693.03;;;14.53;100.00
5703;BME280;2876;51.738;10.050;2022-09-09T02:35:33;98689.31;;;14.42;100.00
5703;BME280;2876;51.738;10.050;2022-09-09T02:41:42;98681.38;;;14.36;100.00
5703;BME280;2876;51.738;10.050;2022-09-09T02:48:09;98679.41;;;14.60;100.00
5703;BME280;2876;51.738;10.050;2022-09-09T02:54:31;98672.31;;;14.54;100.00
5703;BME280;2876;51.738;10.050;2022-09-09T03:00:34;98677.38;;;14.67;100.00
5703;BME280;2876;51.738;10.050;2022-09-09T03:06:37;98675.00;;;14.70;100.00
5703;BME280;2876;51.738;10.050;2022-09-09T03:12:39;98665.44;;;14.63;100.00
5703;BME280;2876;51.738;10.050;2022-09-09T03:18:41;98673.13;;;14.54;100.00
5703;BME280;2876;51.738;10.050;2022-09-09T03:24:44;98679.41;;;14.60;100.00
5703;BME280;2876;51.738;10.050;2022-09-09T03:30:46;98670.78;;;14.75;100.00
5703;BME280;2876;51.738;10.050;2022-09-09T03:36:48;98689.84;;;14.68;100.00
5703;BME280;2876;51.738;10.050;2022-09-09T03:42:50;98692.00;;;15.00;100.00
5703;BME280;2876;51.738;10.050;2022-09-09T03:48:52;98693.13;;;14.87;100.00
5703;BME280;2876;51.738;10.050;2022-09-09T03:54:54;98678.56;;;14.88;100.00
5703;BME280;2876;51.738;10.050;2022-09-09T04:01:11;98676.03;;;14.81;100.00
5703;BME280;2876;51.738;10.050;2022-09-09T04:07:18;98678.59;;;15.05;100.00
5703;BME280;2876;51.738;10.050;2022-09-09T04:13:20;98682.59;;;14.85;100.00
5703;BME280;2876;51.738;10.050;2022-09-09T04:19:22;98673.09;;;15.00;100.00
5703;BME280;2876;51.738;10.050;2022-09-09T04:25:24;98676.13;;;14.86;100.00
5703;BME280;2876;51.738;10.050;2022-09-09T04:31:26;98676.59;;;14.83;100.00
5703;BME280;2876;51.738;10.050;2022-09-09T04:37:28;98673.63;;;14.68;100.00
5703;BME280;2876;51.738;10.050;2022-09-09T04:43:30;98674.88;;;14.77;100.00
5703;BME280;2876;51.738;10.050;2022-09-09T04:49:32;98679.50;;;14.65;100.00
5703;BME280;2876;51.738;10.050;2022-09-09T04:55:34;98669.69;;;14.76;100.00
5703;BME280;2876;51.738;10.050;2022-09-09T05:01:36;98674.25;;;15.04;100.00
5703;BME280;2876;51.738;10.050;2022-09-09T05:07:38;98688.25;;;15.01;100.00
5703;BME280;2876;51.738;10.050;2022-09-09T05:13:40;98690.63;;;15.14;100.00
5703;BME280;2876;51.738;10.050;2022-09-09T05:19:42;98687.09;;;15.30;100.00
5703;BME280;2876;51.738;10.050;2022-09-09T05:25:57;98699.72;;;15.58;100.00
5703;BME280;2876;51.738;10.050;2022-09-09T05:32:00;98700.34;;;15.48;100.00
5703;BME280;2876;51.738;10.050;2022-09-09T05:38:02;98697.94;;;15.64;100.00
5703;BME280;2876;51.738;10.050;2022-09-09T05:44:04;98697.31;;;15.79;100.00
5703;BME280;2876;51.738;10.050;2022-09-09T05:50:07;98713.22;;;15.75;100.00
5703;BME280;2876;51.738;10.050;2022-09-09T05:56:21;98703.53;;;15.79;98.92
5703;BME280;2876;51.738;10.050;2022-09-09T06:02:29;98706.91;;;15.86;99.00
5703;BME280;2876;51.738;10.050;2022-09-09T06:08:35;98707.59;;;15.98;98.36
5703;BME280;2876;51.738;10.050;2022-09-09T06:14:40;98708.78;;;16.08;98.63
5703;BME280;2876;51.738;10.050;2022-09-09T06:21:01;98717.44;;;16.05;98.46
5703;BME280;2876;51.738;10.050;2022-09-09T06:27:05;98707.00;;;16.13;97.54
5703;BME280;2876;51.738;10.050;2022-09-09T06:33:08;98713.09;;;16.26;97.43
5703;BME280;2876;51.738;10.050;2022-09-09T06:39:11;98714.16;;;16.24;97.54
5703;BME280;2876;51.738;10.050;2022-09-09T06:45:16;98723.03;;;16.64;97.39
5703;BME280;2876;51.738;10.050;2022-09-09T06:51:21;98721.28;;;18.71;88.02
5703;BME280;2876;51.738;10.050;2022-09-09T06:57:24;98734.50;;;22.99;70.29
5703;BME280;2876;51.738;10.050;2022-09-09T07:03:39;98730.78;;;22.66;66.87
5703;BME280;2876;51.738;10.050;2022-09-09T07:09:41;98731.38;;;23.76;64.17
5703;BME280;2876;51.738;10.050;2022-09-09T07:15:42;98742.13;;;24.96;60.11
5703;BME280;2876;51.738;10.050;2022-09-09T07:21:44;98733.47;;;23.46;65.24
5703;BME280;2876;51.738;10.050;2022-09-09T07:27:46;98729.47;;;22.63;69.50
5703;BME280;2876;51.738;10.050;2022-09-09T07:33:48;98734.75;;;22.07;70.31
5703;BME280;2876;51.738;10.050;2022-09-09T07:39:51;98732.50;;;21.56;71.01
5703;BME280;2876;51.738;10.050;2022-09-09T07:45:58;98728.09;;;20.21;75.39
5703;BME280;2876;51.738;10.050;2022-09-09T07:52:00;98739.25;;;20.20;77.43
5703;BME280;2876;51.738;10.050;2022-09-09T07:58:02;98746.19;;;20.62;77.02
5703;BME280;2876;51.738;10.050;2022-09-09T08:04:08;98737.13;;;20.76;76.40
5703;BME280;2876;51.738;10.050;2022-09-09T08:10:11;98742.16;;;20.44;77.08
5703;BME280;2876;51.738;10.050;2022-09-09T08:16:20;98743.53;;;21.01;77.28
5703;BME280;2876;51.738;10.050;2022-09-09T08:22:25;98745.97;;;21.47;74.79
5703;BME280;2876;51.738;10.050;2022-09-09T08:28:27;98749.09;;;22.22;69.00
5703;BME280;2876;51.738;10.050;2022-09-09T08:34:29;98743.28;;;21.76;68.70
5703;BME280;2876;51.738;10.050;2022-09-09T08:40:39;98750.69;;;20.92;72.04
5703;BME280;2876;51.738;10.050;2022-09-09T08:47:34;98756.03;;;21.07;71.95
5703;BME280;2876;51.738;10.050;2022-09-09T08:53:28;98749.56;;;20.93;71.83
5703;BME280;2876;51.738;10.050;2022-09-09T08:59:34;98768.59;;;21.47;71.53
5703;BME280;2876;51.738;10.050;2022-09-09T09:12:16;98774.81;;;21.58;70.55
5703;BME280;2876;51.738;10.050;2022-09-09T09:18:20;98775.97;;;21.47;70.00
5703;BME280;2876;51.738;10.050;2022-09-09T09:30:48;98765.72;;;21.68;67.73
5703;BME280;2876;51.738;10.050;2022-09-09T09:36:57;98772.66;;;21.55;68.58
5703;BME280;2876;51.738;10.050;2022-09-09T09:43:03;98757.66;;;22.11;65.60
5703;BME280;2876;51.738;10.050;2022-09-09T09:49:10;98747.94;;;22.95;63.20
5703;BME280;2876;51.738;10.050;2022-09-09T09:55:14;98758.34;;;23.50;62.11
5703;BME280;2876;51.738;10.050;2022-09-09T10:07:28;98750.09;;;24.29;62.08
5703;BME280;2876;51.738;10.050;2022-09-09T10:20:10;98748.78;;;24.13;58.56
5703;BME280;2876;51.738;10.050;2022-09-09T10:26:38;98743.75;;;23.54;59.93
5703;BME280;2876;51.738;10.050;2022-09-09T10:39:01;98734.19;;;23.52;58.70
5703;BME280;2876;51.738;10.050;2022-09-09T10:45:23;98731.00;;;23.64;58.80
5703;BME280;2876;51.738;10.050;2022-09-09T10:52:09;98744.50;;;24.20;55.13
5703;BME280;2876;51.738;10.050;2022-09-09T10:58:38;98728.06;;;24.75;56.66
5703;BME280;2876;51.738;10.050;2022-09-09T11:11:24;98731.41;;;29.18;41.28
5703;BME280;2876;51.738;10.050;2022-09-09T11:17:56;98722.69;;;27.71;43.05
5703;BME280;2876;51.738;10.050;2022-09-09T11:24:06;98721.53;;;25.89;47.38
5703;BME280;2876;51.738;10.050;2022-09-09T11:43:18;98710.63;;;25.08;49.01
5703;BME280;2876;51.738;10.050;2022-09-09T11:49:43;98711.25;;;25.72;46.22
5703;BME280;2876;51.738;10.050;2022-09-09T11:55:47;98718.97;;;27.50;42.05
5703;BME280;2876;51.738;10.050;2022-09-09T12:01:56;98717.19;;;27.80;40.48
5703;BME280;2876;51.738;10.050;2022-09-09T12:08:00;98713.66;;;25.73;45.83
5703;BME280;2876;51.738;10.050;2022-09-09T12:14:03;98713.13;;;24.68;47.48
5703;BME280;2876;51.738;10.050;2022-09-09T12:26:33;98709.28;;;24.55;50.05
5703;BME280;2876;51.738;10.050;2022-09-09T12:32:37;98707.25;;;25.78;45.73
5703;BME280;2876;51.738;10.050;2022-09-09T12:38:41;98694.38;;;28.00;42.23
5703;BME280;2876;51.738;10.050;2022-09-09T12:45:01;98713.38;;;27.93;40.13
5703;BME280;2876;51.738;10.050;2022-09-09T12:51:16;98700.41;;;30.12;36.46
5703;BME280;2876;51.738;10.050;2022-09-09T12:57:23;98690.66;;;32.03;32.59
5703;BME280;2876;51.738;10.050;2022-09-09T13:03:28;98699.84;;;32.90;31.10
5703;BME280;2876;51.738;10.050;2022-09-09T13:09:31;98675.59;;;28.82;34.94
5703;BME280;2876;51.738;10.050;2022-09-09T13:15:33;98656.22;;;27.73;36.91
5703;BME280;2876;51.738;10.050;2022-09-09T13:21:37;98685.13;;;26.80;39.30
5703;BME280;2876;51.738;10.050;2022-09-09T13:27:41;98672.13;;;25.75;42.87
5703;BME280;2876;51.738;10.050;2022-09-09T13:33:52;98675.34;;;26.48;40.81
5703;BME280;2876;51.738;10.050;2022-09-09T13:39:55;98676.53;;;27.34;38.26
5703;BME280;2876;51.738;10.050;2022-09-09T13:46:04;98684.22;;;28.81;37.41
5703;BME280;2876;51.738;10.050;2022-09-09T13:52:16;98680.28;;;29.12;34.67
5703;BME280;2876;51.738;10.050;2022-09-09T13:58:20;98683.63;;;28.16;38.24
5703;BME280;2876;51.738;10.050;2022-09-09T14:04:24;98681.16;;;28.23;38.56
5703;BME280;2876;51.738;10.050;2022-09-09T14:10:26;98670.91;;;27.94;39.37
5703;BME280;2876;51.738;10.050;2022-09-09T14:16:28;98660.53;;;29.34;36.26
5703;BME280;2876;51.738;10.050;2022-09-09T14:22:30;98666.69;;;29.73;35.41
5703;BME280;2876;51.738;10.050;2022-09-09T14:28:33;98672.72;;;30.12;35.11
5703;BME280;2876;51.738;10.050;2022-09-09T14:34:55;98674.00;;;29.56;35.07
5703;BME280;2876;51.738;10.050;2022-09-09T14:40:57;98665.19;;;27.44;39.88
5703;BME280;2876;51.738;10.050;2022-09-09T14:47:00;98657.91;;;26.70;41.48
5703;BME280;2876;51.738;10.050;2022-09-09T14:53:02;98661.78;;;28.41;37.58
5703;BME280;2876;51.738;10.050;2022-09-09T14:59:04;98667.22;;;31.29;33.25
5703;BME280;2876;51.738;10.050;2022-09-09T15:05:06;98669.16;;;32.48;30.16
5703;BME280;2876;51.738;10.050;2022-09-09T15:11:10;98662.00;;;31.55;31.46
5703;BME280;2876;51.738;10.050;2022-09-09T15:17:13;98656.94;;;28.29;36.54
5703;BME280;2876;51.738;10.050;2022-09-09T15:23:15;98659.97;;;28.45;37.54
5703;BME280;2876;51.738;10.050;2022-09-09T15:29:18;98658.41;;;30.46;34.58
5703;BME280;2876;51.738;10.050;2022-09-09T15:35:20;98649.69;;;31.69;32.63
5703;BME280;2876;51.738;10.050;2022-09-09T15:41:23;98661.53;;;33.80;30.01
5703;BME280;2876;51.738;10.050;2022-09-09T15:47:25;98673.16;;;34.85;29.23
5703;BME280;2876;51.738;10.050;2022-09-09T15:53:26;98681.28;;;33.33;30.62
5703;BME280;2876;51.738;10.050;2022-09-09T15:59:30;98678.34;;;30.89;33.64
5703;BME280;2876;51.738;10.050;2022-09-09T16:05:33;98665.72;;;31.03;34.02
5703;BME280;2876;51.738;10.050;2022-09-09T16:11:37;98662.91;;;32.03;32.41
5703;BME280;2876;51.738;10.050;2022-09-09T16:17:39;98654.50;;;32.86;30.92
5703;BME280;2876;51.738;10.050;2022-09-09T16:23:41;98657.75;;;31.74;32.61
5703;BME280;2876;51.738;10.050;2022-09-09T16:29:43;98644.31;;;31.16;33.65
5703;BME280;2876;51.738;10.050;2022-09-09T16:35:45;98644.00;;;31.93;32.32
5703;BME280;2876;51.738;10.050;2022-09-09T16:41:48;98647.47;;;32.38;32.46
5703;BME280;2876;51.738;10.050;2022-09-09T16:47:51;98658.66;;;31.62;33.89
5703;BME280;2876;51.738;10.050;2022-09-09T16:53:54;98665.34;;;29.25;36.16
5703;BME280;2876;51.738;10.050;2022-09-09T16:59:56;98660.63;;;26.44;42.54
5703;BME280;2876;51.738;10.050;2022-09-09T17:06:01;98667.59;;;24.80;46.93
5703;BME280;2876;51.738;10.050;2022-09-09T17:12:06;98671.63;;;24.19;50.74
5703;BME280;2876;51.738;10.050;2022-09-09T17:18:10;98677.47;;;23.06;52.99
5703;BME280;2876;51.738;10.050;2022-09-09T17:24:12;98673.44;;;22.42;54.21
5703;BME280;2876;51.738;10.050;2022-09-09T17:30:14;98686.06;;;21.90;56.14
5703;BME280;2876;51.738;10.050;2022-09-09T17:36:28;98678.31;;;21.73;58.22
5703;BME280;2876;51.738;10.050;2022-09-09T17:42:30;98694.91;;;21.13;61.37
5703;BME280;2876;51.738;10.050;2022-09-09T17:48:33;98702.06;;;20.60;62.48
5703;BME280;2876;51.738;10.050;2022-09-09T17:54:35;98698.31;;;20.40;62.50
5703;BME280;2876;51.738;10.050;2022-09-09T18:00:37;98698.56;;;20.39;62.80
5703;BME280;2876;51.738;10.050;2022-09-09T18:06:43;98696.44;;;20.25;62.75
5703;BME280;2876;51.738;10.050;2022-09-09T18:12:45;98700.59;;;20.13;62.68
5703;BME280;2876;51.738;10.050;2022-09-09T18:18:49;98704.78;;;19.69;66.33
5703;BME280;2876;51.738;10.050;2022-09-09T18:24:51;98700.41;;;19.43;68.16
5703;BME280;2876;51.738;10.050;2022-09-09T18:30:53;98695.81;;;19.08;68.97
5703;BME280;2876;51.738;10.050;2022-09-09T18:36:56;98702.34;;;19.27;66.98
5703;BME280;2876;51.738;10.050;2022-09-09T18:42:59;98702.06;;;19.03;68.53
5703;BME280;2876;51.738;10.050;2022-09-09T18:49:01;98723.00;;;19.18;66.07
5703;BME280;2876;51.738;10.050;2022-09-09T18:55:03;98725.44;;;19.30;65.75
5703;BME280;2876;51.738;10.050;2022-09-09T19:01:11;98732.53;;;19.31;65.76
5703;BME280;2876;51.738;10.050;2022-09-09T19:07:13;98734.16;;;19.21;67.06
5703;BME280;2876;51.738;10.050;2022-09-09T19:13:15;98736.84;;;19.16;68.09
5703;BME280;2876;51.738;10.050;2022-09-09T19:19:21;98737.41;;;19.13;68.50
5703;BME280;2876;51.738;10.050;2022-09-09T19:25:25;98747.72;;;19.01;69.74
5703;BME280;2876;51.738;10.050;2022-09-09T19:31:27;98750.66;;;18.84;69.54
5703;BME280;2876;51.738;10.050;2022-09-09T19:37:29;98767.56;;;19.01;69.34
5703;BME280;2876;51.738;10.050;2022-09-09T19:43:33;98768.31;;;18.71;69.75
5703;BME280;2876;51.738;10.050;2022-09-09T19:49:35;98789.56;;;18.95;69.99
5703;BME280;2876;51.738;10.050;2022-09-09T19:55:38;98788.38;;;18.70;71.77
5703;BME280;2876;51.738;10.050;2022-09-09T20:01:43;98778.25;;;18.61;71.70
5703;BME280;2876;51.738;10.050;2022-09-09T20:07:45;98787.47;;;18.49;72.39
5703;BME280;2876;51.738;10.050;2022-09-09T20:13:48;98798.00;;;18.36;73.15
5703;BME280;2876;51.738;10.050;2022-09-09T20:19:50;98808.75;;;18.20;73.61
5703;BME280;2876;51.738;10.050;2022-09-09T20:25:52;98806.53;;;18.12;73.89
5703;BME280;2876;51.738;10.050;2022-09-09T20:31:54;98804.19;;;18.26;73.89
5703;BME280;2876;51.738;10.050;2022-09-09T20:37:56;98813.03;;;18.11;73.09
5703;BME280;2876;51.738;10.050;2022-09-09T20:44:08;98812.03;;;17.85;73.77
5703;BME280;2876;51.738;10.050;2022-09-09T20:50:14;98812.22;;;17.73;75.05
5703;BME280;2876;51.738;10.050;2022-09-09T20:56:16;98821.06;;;17.64;75.74
5703;BME280;2876;51.738;10.050;2022-09-09T21:02:18;98834.00;;;17.57;76.89
5703;BME280;2876;51.738;10.050;2022-09-09T21:08:20;98838.88;;;17.82;75.21
5703;BME280;2876;51.738;10.050;2022-09-09T21:14:22;98833.91;;;17.73;74.18
5703;BME280;2876;51.738;10.050;2022-09-09T21:20:24;98846.72;;;17.78;75.08
5703;BME280;2876;51.738;10.050;2022-09-09T21:26:27;98842.03;;;18.06;73.62
5703;BME280;2876;51.738;10.050;2022-09-09T21:32:29;98852.34;;;18.04;74.04
5703;BME280;2876;51.738;10.050;2022-09-09T21:38:31;98849.41;;;18.10;75.38
5703;BME280;2876;51.738;10.050;2022-09-09T21:44:34;98857.88;;;17.82;76.68
5703;BME280;2876;51.738;10.050;2022-09-09T21:50:41;98866.34;;;17.90;76.86
5703;BME280;2876;51.738;10.050;2022-09-09T21:56:43;98862.53;;;17.86;77.49
5703;BME280;2876;51.738;10.050;2022-09-09T22:02:46;98877.09;;;17.80;77.64
5703;BME280;2876;51.738;10.050;2022-09-09T22:08:48;98856.50;;;17.84;78.44
5703;BME280;2876;51.738;10.050;2022-09-09T22:14:50;98857.06;;;17.81;77.17
5703;BME280;2876;51.738;10.050;2022-09-09T22:20:53;98863.19;;;17.71;77.94
5703;BME280;2876;51.738;10.050;2022-09-09T22:26:56;98851.31;;;17.50;78.94
5703;BME280;2876;51.738;10.050;2022-09-09T22:32:58;98849.91;;;17.48;80.11
5703;BME280;2876;51.738;10.050;2022-09-09T22:39:02;98849.16;;;17.53;79.94
5703;BME280;2876;51.738;10.050;2022-09-09T22:45:05;98853.66;;;17.42;80.05
5703;BME280;2876;51.738;10.050;2022-09-09T22:51:12;98854.13;;;17.34;80.71
5703;BME280;2876;51.738;10.050;2022-09-09T22:57:14;98836.44;;;17.26;80.97
5703;BME280;2876;51.738;10.050;2022-09-09T23:03:17;98839.34;;;17.19;81.44
5703;BME280;2876;51.738;10.050;2022-09-09T23:09:19;98836.16;;;17.01;81.92
5703;BME280;2876;51.738;10.050;2022-09-09T23:15:21;98838.09;;;17.05;81.48
5703;BME280;2876;51.738;10.050;2022-09-09T23:21:24;98837.16;;;16.94;82.08
5703;BME280;2876;51.738;10.050;2022-09-09T23:27:29;98830.63;;;16.90;82.33
5703;BME280;2876;51.738;10.050;2022-09-09T23:33:33;98821.47;;;16.74;83.44
5703;BME280;2876;51.738;10.050;2022-09-09T23:39:35;98823.44;;;16.79;83.77
5703;BME280;2876;51.738;10.050;2022-09-09T23:45:37;98825.53;;;16.55;84.41
5703;BME280;2876;51.738;10.050;2022-09-09T23:51:39;98815.25;;;16.57;85.01
5703;BME280;2876;51.738;10.050;2022-09-09T23:57:41;98814.69;;;16.33;86.02
